Krebs, Oklahoma
Current Conditions -  °F | °C
As of 9:53 AM on Thursday 30 Oct 2014 (Local Time) from KMLC Reporting Station
Few Clouds Few Clouds  
Wind Chill: 15°   Ceiling: Unl
Heat Index: 15°   Visibility: 10mi
Dew Point:   Wind: 9mph
Humidity: 67%   Direction: 210°SSW
Pressure: 30.16"   Gusts: NA
Location:  34.93°N, 95.72°W
Report Text: KMLC 301453Z AUTO 21008KT 10SM FEW085 FEW110 15/09 A3016 RMK AO2 SLP209 T01500089 51007
Loading
Personal Weather Stations






























Interactive Weather Map
Tropical Storm Tracking
New forecast layout! Learn more

10-Day Weather Forecast

Advertisements
Track Severe Weather on mobile